Time;durP1;ratioP1;P1;durP2;ratioP2;P2;SDS_P1;SDS_P2;PMS_P1;PMS_P2;Temp;Humidity;BMP_temperature;BMP_pressure;BME280_temperature;BME280_humidity;BME280_pressure;Samples;Min_cycle;Max_cycle;Signal;HPM_P1;HPM_P2
2022/03/03 00:00:00;;;;;;;46.50;26.38;;;-1.60;99.90;;;-146.41;100.00;57768.22;4979161;28;20503;-68
2022/03/03 00:02:28;;;;;;;61.03;35.13;;;-1.70;99.90;;;-146.41;100.00;57768.22;4977005;28;20078;-67
2022/03/03 00:04:56;;;;;;;50.92;29.80;;;-1.70;99.90;;;-146.41;100.00;57768.22;4980250;28;20073;-67
2022/03/03 00:07:25;;;;;;;52.47;29.98;;;-1.70;99.90;;;-146.41;100.00;57768.22;4980876;28;20058;-67
2022/03/03 00:09:52;;;;;;;60.13;34.30;;;-1.70;99.90;;;-146.41;100.00;57768.22;4974352;28;20168;-67
2022/03/03 00:12:20;;;;;;;52.72;30.38;;;-1.70;99.90;;;-146.41;100.00;57768.22;4982207;28;20142;-67
2022/03/03 00:14:47;;;;;;;50.58;30.45;;;-1.70;99.90;;;-146.41;100.00;57768.22;4975698;28;20182;-67
2022/03/03 00:17:14;;;;;;;45.33;27.10;;;-1.80;99.90;;;-146.41;100.00;57768.22;4978220;28;20409;-67
2022/03/03 00:19:42;;;;;;;41.38;24.58;;;-1.70;99.90;;;-146.41;100.00;57768.22;4980217;28;20421;-67
2022/03/03 00:22:10;;;;;;;46.08;25.58;;;-1.70;99.90;;;-146.41;100.00;57768.22;4978771;28;20124;-67
2022/03/03 00:24:37;;;;;;;40.55;24.25;;;-1.80;99.90;;;-146.41;100.00;57768.22;4977253;28;20125;-67
2022/03/03 00:27:05;;;;;;;40.25;22.95;;;-1.80;99.90;;;-146.41;100.00;57768.22;4965434;28;20131;-67
2022/03/03 00:29:32;;;;;;;40.10;24.95;;;-1.80;99.90;;;-146.41;100.00;57768.22;4978403;28;20117;-67
2022/03/03 00:32:00;;;;;;;40.95;23.45;;;-1.80;99.90;;;-146.41;100.00;57768.22;4980186;28;20104;-67
2022/03/03 00:34:28;;;;;;;41.42;24.08;;;-1.80;99.90;;;-146.41;100.00;57768.22;4981694;28;20482;-67
2022/03/03 00:36:55;;;;;;;42.85;23.60;;;-1.80;99.90;;;-146.41;100.00;57768.22;4966970;28;20077;-67
2022/03/03 00:39:22;;;;;;;42.20;25.75;;;-1.80;99.90;;;-146.41;100.00;57768.22;4978639;28;20101;-67
2022/03/03 00:41:49;;;;;;;42.05;24.75;;;-1.90;99.90;;;-146.41;100.00;57768.22;4980699;28;20149;-67
2022/03/03 00:44:16;;;;;;;44.38;24.55;;;-1.80;99.90;;;-146.41;100.00;57768.22;4983579;28;20597;-67
2022/03/03 00:46:43;;;;;;;47.13;27.55;;;-1.90;99.90;;;-146.41;100.00;57768.22;4982400;28;20431;-67
2022/03/03 00:49:10;;;;;;;52.00;27.67;;;-1.90;99.90;;;-146.41;100.00;57768.22;4980902;28;20050;-67
2022/03/03 00:51:37;;;;;;;43.47;26.05;;;-1.90;99.90;;;-146.41;100.00;57768.22;4980485;28;20059;-67
2022/03/03 00:54:04;;;;;;;37.03;23.60;;;-1.90;99.90;;;-146.41;100.00;57768.22;4982895;28;20137;-67
2022/03/03 00:56:31;;;;;;;43.30;24.88;;;-1.90;99.90;;;-146.41;100.00;57768.22;4982012;28;20077;-67
2022/03/03 00:58:58;;;;;;;41.67;24.33;;;-2.00;99.90;;;-146.41;100.00;57768.22;4966352;28;20392;-67
2022/03/03 01:01:25;;;;;;;38.80;23.92;;;-2.00;99.90;;;-146.41;100.00;57768.22;4980765;28;20052;-67
2022/03/03 01:03:53;;;;;;;38.85;24.20;;;-2.00;99.90;;;-146.41;100.00;57768.22;4983414;28;20058;-67
2022/03/03 01:06:20;;;;;;;49.42;27.67;;;-2.00;99.90;;;-146.41;100.00;57768.22;4980261;28;20047;-67
2022/03/03 01:08:47;;;;;;;45.03;26.45;;;-2.10;99.90;;;-146.41;100.00;57768.22;4983288;28;20085;-67
2022/03/03 01:11:14;;;;;;;42.10;24.90;;;-2.20;99.90;;;-146.41;100.00;57768.22;4983972;28;20078;-67
2022/03/03 01:13:41;;;;;;;40.40;24.65;;;-2.20;99.90;;;-146.41;100.00;57768.22;4980777;28;20089;-67
2022/03/03 01:16:08;;;;;;;45.92;26.20;;;-2.20;99.90;;;-146.41;100.00;57768.22;4980781;28;20061;-67
2022/03/03 01:18:35;;;;;;;35.85;21.95;;;-2.20;99.90;;;-146.41;100.00;57768.22;4983816;28;20062;-67
2022/03/03 01:21:02;;;;;;;36.05;22.45;;;-2.20;99.90;;;-146.41;100.00;57768.22;4982181;28;20130;-67
2022/03/03 01:23:29;;;;;;;35.90;23.23;;;-2.10;99.90;;;-146.41;100.00;57768.22;4981652;28;20121;-67
2022/03/03 01:25:56;;;;;;;37.15;22.88;;;-2.20;99.90;;;-146.41;100.00;57768.22;4962888;28;20079;-67
2022/03/03 01:28:23;;;;;;;39.05;23.00;;;-2.30;99.90;;;-146.41;100.00;57768.22;4981371;28;20046;-67
2022/03/03 01:30:50;;;;;;;37.80;22.98;;;-2.30;99.90;;;-146.41;100.00;57768.22;4978788;28;20170;-67
2022/03/03 01:33:17;;;;;;;35.58;21.60;;;-2.20;99.90;;;-146.41;100.00;57768.22;4985672;28;20051;-67
2022/03/03 01:35:44;;;;;;;38.47;23.67;;;-2.20;99.90;;;-146.41;100.00;57768.22;4979890;28;20089;-67
2022/03/03 01:38:11;;;;;;;37.67;22.60;;;-2.20;99.90;;;-146.41;100.00;57768.22;4980417;28;20074;-67
2022/03/03 01:40:39;;;;;;;34.33;22.25;;;-2.30;99.90;;;-146.41;100.00;57768.22;4982318;28;20355;-67
2022/03/03 01:43:06;;;;;;;35.13;20.45;;;-2.20;99.90;;;-146.41;100.00;57768.22;4981653;28;20058;-67
2022/03/03 01:45:33;;;;;;;37.13;23.55;;;-2.30;99.90;;;-146.41;100.00;57768.22;4982881;28;20101;-67
2022/03/03 01:48:00;;;;;;;37.35;22.63;;;-2.30;99.90;;;-146.41;100.00;57768.22;4981162;28;20097;-67
2022/03/03 01:50:28;;;;;;;42.40;25.73;;;-2.30;99.90;;;-146.41;100.00;57768.22;4962123;28;20070;-67
2022/03/03 01:52:55;;;;;;;38.65;23.98;;;-2.30;99.90;;;-146.41;100.00;57768.22;4966823;28;20138;-67
2022/03/03 01:55:22;;;;;;;35.40;22.40;;;-2.40;99.90;;;-146.41;100.00;57768.22;4977597;28;20533;-67
2022/03/03 01:57:50;;;;;;;39.67;22.75;;;-2.30;99.90;;;-146.41;100.00;57768.22;4981359;28;20050;-68
2022/03/03 02:00:18;;;;;;;34.60;19.27;;;-2.30;99.90;;;-146.41;100.00;57768.22;4980707;28;20074;-67
2022/03/03 02:02:46;;;;;;;38.28;21.73;;;-2.30;99.90;;;-146.41;100.00;57768.22;4978600;28;20074;-67
2022/03/03 02:05:14;;;;;;;40.28;22.92;;;-2.40;99.90;;;-146.41;100.00;57768.22;4974562;28;20063;-67
2022/03/03 02:07:41;;;;;;;36.42;21.83;;;-2.40;99.90;;;-146.41;100.00;57768.22;4982559;28;20046;-67
2022/03/03 02:10:09;;;;;;;35.30;21.05;;;-2.40;99.90;;;-146.41;100.00;57768.22;4964559;28;20129;-67
2022/03/03 02:12:36;;;;;;;34.45;20.65;;;-2.40;99.90;;;-146.41;100.00;57768.22;4982840;28;20126;-68
2022/03/03 02:15:05;;;;;;;37.25;22.08;;;-2.40;99.90;;;-146.41;100.00;57768.22;4964451;28;20129;-67
2022/03/03 02:17:33;;;;;;;34.40;20.98;;;-2.40;99.90;;;-146.41;100.00;57768.22;4963564;28;20062;-67
2022/03/03 02:20:06;;;;;;;30.98;19.38;;;-2.40;99.90;;;-146.41;100.00;57768.22;4978946;28;20542;-68
2022/03/03 02:22:35;;;;;;;31.63;19.83;;;-2.40;99.90;;;-146.41;100.00;57768.22;4981669;28;20128;-67
2022/03/03 02:25:03;;;;;;;28.15;18.85;;;-2.50;99.90;;;-146.41;100.00;57768.22;4982194;28;20057;-67
2022/03/03 02:27:31;;;;;;;27.85;17.88;;;-2.50;99.90;;;-146.41;100.00;57768.22;4981357;28;20047;-67
2022/03/03 02:29:59;;;;;;;27.10;18.52;;;-2.60;99.90;;;-146.41;100.00;57768.22;4969801;28;20475;-67
2022/03/03 02:32:26;;;;;;;31.50;20.77;;;-2.60;99.90;;;-146.41;100.00;57768.22;4982199;28;20085;-67
2022/03/03 02:34:53;;;;;;;28.15;19.08;;;-2.60;99.90;;;-146.41;100.00;57768.22;4979896;28;20101;-67
2022/03/03 02:37:20;;;;;;;33.20;19.20;;;-2.60;99.90;;;-146.41;100.00;57768.22;4978301;28;20512;-67
2022/03/03 02:39:48;;;;;;;25.90;17.95;;;-2.60;99.90;;;-146.41;100.00;57768.22;4983555;28;20054;-67
2022/03/03 02:42:15;;;;;;;28.95;19.55;;;-2.60;99.90;;;-146.41;100.00;57768.22;4976744;28;20427;-67
2022/03/03 02:44:42;;;;;;;35.58;19.20;;;-2.70;99.90;;;-146.41;100.00;57768.22;4984177;28;20046;-67
2022/03/03 02:47:09;;;;;;;31.10;18.70;;;-2.60;99.90;;;-146.41;100.00;57768.22;4964255;28;20096;-68
2022/03/03 02:49:37;;;;;;;32.55;19.73;;;-2.60;99.90;;;-146.41;100.00;57768.22;4978120;28;20137;-67
2022/03/03 02:52:04;;;;;;;34.13;20.73;;;-2.70;99.90;;;-146.41;100.00;57768.22;4959832;28;20194;-67
2022/03/03 02:54:31;;;;;;;37.13;22.30;;;-2.70;99.90;;;-146.41;100.00;57768.22;4975543;28;20094;-67
2022/03/03 02:59:43;;;;;;;34.97;20.92;;;-2.80;99.90;;;-146.41;100.00;57768.22;4981062;28;20437;-67
2022/03/03 03:02:10;;;;;;;30.35;18.48;;;-2.70;99.90;;;-146.41;100.00;57768.22;4967705;28;20077;-67
2022/03/03 03:04:37;;;;;;;32.83;19.92;;;-2.70;99.90;;;-146.41;100.00;57768.22;4979712;28;20085;-67
2022/03/03 03:07:05;;;;;;;35.80;21.05;;;-2.70;99.90;;;-146.41;100.00;57768.22;4979610;28;20043;-67
2022/03/03 03:09:32;;;;;;;30.08;19.42;;;-2.70;99.90;;;-146.41;100.00;57768.22;4976421;28;20145;-67
2022/03/03 03:11:59;;;;;;;38.08;21.02;;;-2.80;99.90;;;-146.41;100.00;57768.22;4980583;28;20129;-67
2022/03/03 03:14:26;;;;;;;31.23;19.75;;;-2.70;99.90;;;-146.41;100.00;57768.22;4980061;28;20510;-67
2022/03/03 03:16:53;;;;;;;32.17;20.65;;;-2.70;99.90;;;-146.41;100.00;57768.22;4977683;28;20502;-67
2022/03/03 03:19:21;;;;;;;25.10;16.58;;;-2.80;99.90;;;-146.41;100.00;57768.22;4979691;28;20050;-67
2022/03/03 03:21:48;;;;;;;30.85;19.77;;;-2.70;99.90;;;-146.41;100.00;57768.22;4980827;28;20046;-67
2022/03/03 03:24:15;;;;;;;30.05;20.75;;;-2.80;99.90;;;-146.41;100.00;57768.22;4962524;28;20113;-67
2022/03/03 03:26:42;;;;;;;36.42;22.40;;;-2.80;99.90;;;-146.41;100.00;57768.22;4979069;28;20803;-67
2022/03/03 03:29:09;;;;;;;32.70;22.38;;;-2.80;99.90;;;-146.41;100.00;57768.22;4969133;28;20538;-67
2022/03/03 03:31:36;;;;;;;35.25;23.30;;;-2.80;99.90;;;-146.41;100.00;57768.22;4974626;28;20133;-67
2022/03/03 03:34:03;;;;;;;36.67;22.55;;;-2.80;99.90;;;-146.41;100.00;57768.22;4981359;28;20415;-67
2022/03/03 03:36:30;;;;;;;36.72;23.05;;;-2.80;99.90;;;-146.41;100.00;57768.22;4972960;28;20077;-67
2022/03/03 03:38:57;;;;;;;33.30;21.27;;;-2.80;99.90;;;-146.41;100.00;57768.22;4979442;28;20388;-66
2022/03/03 03:41:24;;;;;;;36.22;23.10;;;-2.80;99.90;;;-146.41;100.00;57768.22;4982816;28;20458;-67
2022/03/03 03:43:51;;;;;;;32.33;21.38;;;-2.80;99.90;;;-146.41;100.00;57768.22;4977432;28;20137;-67
2022/03/03 03:46:19;;;;;;;29.73;18.92;;;-2.80;99.90;;;-146.41;100.00;57768.22;4981870;28;20066;-67
2022/03/03 03:48:46;;;;;;;29.77;17.60;;;-2.80;99.90;;;-146.41;100.00;57768.22;4982838;28;20526;-67
2022/03/03 03:51:13;;;;;;;30.27;18.73;;;-2.80;99.90;;;-146.41;100.00;57768.22;4979200;28;20075;-67
2022/03/03 03:53:40;;;;;;;28.92;18.25;;;-2.70;99.90;;;-146.41;100.00;57768.22;4979885;28;20061;-67
2022/03/03 03:56:08;;;;;;;29.92;17.92;;;;;;;-146.41;100.00;57768.22;4981277;28;20112;-67
2022/03/03 03:58:35;;;;;;;28.73;16.52;;;-2.80;99.90;;;-146.41;100.00;57768.22;4982142;28;20343;-67
2022/03/03 04:01:02;;;;;;;27.55;16.13;;;-2.80;99.90;;;-146.41;100.00;57768.22;4978323;28;20134;-67
2022/03/03 04:03:30;;;;;;;26.73;16.58;;;-3.00;99.90;;;-146.41;100.00;57768.22;4979032;28;20453;-67
2022/03/03 04:05:56;;;;;;;25.10;18.05;;;-3.00;99.90;;;-146.41;100.00;57768.22;4979746;28;20129;-67
2022/03/03 04:08:23;;;;;;;26.02;17.30;;;-3.00;99.90;;;-146.41;100.00;57768.22;4955522;28;20474;-67
2022/03/03 04:10:50;;;;;;;31.02;20.65;;;-2.90;99.90;;;-146.41;100.00;57768.22;4975146;28;20518;-67
2022/03/03 04:13:17;;;;;;;28.48;19.08;;;-3.00;99.90;;;-146.41;100.00;57768.22;4958244;28;20078;-67
2022/03/03 04:15:45;;;;;;;27.48;17.77;;;-3.00;99.90;;;-146.41;100.00;57768.22;4982817;28;20039;-67
2022/03/03 04:18:12;;;;;;;31.70;20.90;;;-3.00;99.90;;;-146.41;100.00;57768.22;4985659;28;20073;-67
2022/03/03 04:20:39;;;;;;;31.63;19.33;;;-3.00;99.90;;;-146.41;100.00;57768.22;4984669;28;20078;-67
2022/03/03 04:23:06;;;;;;;27.55;18.30;;;-3.00;99.90;;;-146.41;100.00;57768.22;4977674;28;20051;-67
2022/03/03 04:25:33;;;;;;;29.05;17.88;;;-2.90;99.90;;;-146.41;100.00;57768.22;4981256;28;20077;-67
2022/03/03 04:28:02;;;;;;;28.50;18.98;;;-3.00;99.90;;;-146.41;100.00;57768.22;4986335;28;20097;-66
2022/03/03 04:30:29;;;;;;;26.05;18.08;;;-3.00;99.90;;;-146.41;100.00;57768.22;4985183;28;20042;-67
2022/03/03 04:32:57;;;;;;;26.08;16.88;;;-2.90;99.90;;;-146.41;100.00;57768.22;4963933;28;20150;-67
2022/03/03 04:35:24;;;;;;;26.80;17.58;;;-3.00;99.90;;;-146.41;100.00;57768.22;4967241;28;20133;-67
2022/03/03 04:37:51;;;;;;;29.95;19.65;;;-3.00;99.90;;;-146.41;100.00;57768.22;4981138;28;20089;-67
2022/03/03 04:40:18;;;;;;;26.25;17.23;;;-2.90;99.90;;;-146.41;100.00;57768.22;4969428;28;20450;-67
2022/03/03 04:42:45;;;;;;;23.60;16.20;;;-2.90;99.90;;;-146.41;100.00;57768.22;4984301;28;20129;-67
2022/03/03 04:45:12;;;;;;;25.38;16.83;;;-2.90;99.90;;;-146.41;100.00;57768.22;4983270;28;20115;-67
2022/03/03 04:47:39;;;;;;;31.40;20.80;;;-2.90;99.90;;;-146.41;100.00;57768.22;4970950;28;20109;-67
2022/03/03 04:50:07;;;;;;;33.58;20.98;;;-2.90;99.90;;;-146.41;100.00;57768.22;4979737;28;20589;-68
2022/03/03 04:52:36;;;;;;;27.15;18.17;;;-3.00;99.90;;;-146.41;100.00;57768.22;4967669;28;20082;-67
2022/03/03 04:55:05;;;;;;;25.48;16.65;;;-3.00;99.90;;;-146.41;100.00;57768.22;4983627;28;20081;-67
2022/03/03 04:57:34;;;;;;;27.15;18.08;;;-2.90;99.90;;;-146.41;100.00;57768.22;4960644;28;20150;-67
2022/03/03 05:00:04;;;;;;;26.20;18.15;;;-2.90;99.90;;;-146.41;100.00;57768.22;4963207;28;20053;-67
2022/03/03 05:02:32;;;;;;;32.20;19.40;;;-3.00;99.90;;;-146.41;100.00;57768.22;4980386;28;20073;-67
2022/03/03 05:04:59;;;;;;;28.98;18.95;;;-3.00;99.90;;;-146.41;100.00;57768.22;4955304;28;20126;-67
2022/03/03 05:07:27;;;;;;;34.00;21.77;;;-3.00;99.90;;;-146.41;100.00;57768.22;4983785;28;20047;-68
2022/03/03 05:09:54;;;;;;;38.13;21.95;;;-3.00;99.90;;;-146.41;100.00;57768.22;4972608;28;20130;-67
2022/03/03 05:12:21;;;;;;;33.45;21.40;;;-3.10;99.90;;;-146.41;100.00;57768.22;4978672;28;20126;-67
2022/03/03 05:14:48;;;;;;;37.30;21.75;;;-3.10;99.90;;;-146.41;100.00;57768.22;4962667;28;20372;-67
2022/03/03 05:17:16;;;;;;;26.50;18.98;;;-3.10;99.90;;;-146.41;100.00;57768.22;4966960;28;20086;-67
2022/03/03 05:19:43;;;;;;;30.55;19.13;;;-3.00;99.90;;;-146.41;100.00;57768.22;4982033;28;20043;-67
2022/03/03 05:22:11;;;;;;;26.85;17.58;;;;;;;-146.41;100.00;57768.22;4979160;28;20129;-67
2022/03/03 05:24:38;;;;;;;27.48;16.77;;;;;;;-146.41;100.00;57768.22;4982532;28;20042;-68
2022/03/03 05:27:06;;;;;;;31.80;17.27;;;;;;;-146.41;100.00;57768.22;4980488;28;20145;-67
2022/03/03 05:29:34;;;;;;;23.00;15.77;;;;;;;-146.41;100.00;57768.22;4983505;28;20112;-67
2022/03/03 05:32:01;;;;;;;26.88;17.20;;;;;;;-146.41;100.00;57768.22;4977910;28;20129;-67
2022/03/03 05:34:28;;;;;;;25.27;17.15;;;;;;;-146.41;100.00;57768.22;4970850;28;20046;-67
2022/03/03 05:36:56;;;;;;;28.45;19.10;;;;;;;-146.41;100.00;57768.22;4980261;28;20047;-67
2022/03/03 05:39:23;;;;;;;30.55;18.60;;;;;;;-146.41;100.00;57768.22;4978682;28;20051;-67
2022/03/03 05:41:53;;;;;;;31.70;18.83;;;;;;;-146.41;100.00;57768.22;4984773;28;20522;-68
2022/03/03 05:44:21;;;;;;;28.70;17.75;;;;;;;-146.41;100.00;57768.22;4977418;28;20141;-67
2022/03/03 05:46:49;;;;;;;31.65;20.30;;;;;;;-146.41;100.00;57768.22;4980256;28;20412;-67
2022/03/03 05:49:20;;;;;;;27.42;19.25;;;;;;;-146.41;100.00;57768.22;4977876;28;20161;-67
2022/03/03 05:51:47;;;;;;;32.92;20.75;;;-3.20;99.90;;;-146.41;100.00;57768.22;4981178;28;20122;-67
2022/03/03 05:54:14;;;;;;;32.78;21.90;;;-3.30;99.90;;;-146.41;100.00;57768.22;4978338;28;20512;-67
2022/03/03 05:56:46;;;;;;;32.33;21.60;;;-3.30;99.90;;;-146.41;100.00;57768.22;4982185;28;20134;-67
2022/03/03 05:59:15;;;;;;;35.13;21.45;;;-3.40;99.90;;;-146.41;100.00;57768.22;4961166;28;20074;-67
2022/03/03 06:01:43;;;;;;;32.33;20.55;;;-3.30;99.90;;;-146.41;100.00;57768.22;4980377;28;20130;-67
2022/03/03 06:04:15;;;;;;;32.78;21.95;;;-3.30;99.90;;;-146.41;100.00;57768.22;4975856;28;20165;-67
2022/03/03 06:07:04;;;;;;;29.15;19.45;;;-3.40;99.90;;;-146.41;100.00;57768.22;4963689;28;20142;-67
2022/03/03 06:09:33;;;;;;;34.55;21.45;;;-3.40;99.90;;;-146.41;100.00;57768.22;4962788;28;20050;-67
2022/03/03 06:12:35;;;;;;;32.40;20.58;;;-3.40;99.90;;;-146.41;100.00;57768.22;4977160;28;20134;-67
2022/03/03 06:15:05;;;;;;;27.13;17.85;;;-3.40;99.90;;;-146.41;100.00;57768.22;4960212;28;20149;-67
2022/03/03 06:17:34;;;;;;;29.95;17.67;;;-3.40;99.90;;;-146.41;100.00;57768.22;4979194;28;20046;-67
2022/03/03 06:20:04;;;;;;;25.80;17.08;;;-3.40;99.90;;;-146.41;100.00;57768.22;4977461;28;20047;-67
2022/03/03 06:22:32;;;;;;;30.27;19.85;;;-3.40;99.90;;;-146.41;100.00;57768.22;4982459;28;20524;-68
2022/03/03 06:24:59;;;;;;;28.40;19.23;;;-3.30;99.90;;;-146.41;100.00;57768.22;4977026;28;20081;-67
2022/03/03 06:27:26;;;;;;;30.42;19.95;;;-3.30;99.90;;;-146.41;100.00;57768.22;4962331;28;20152;-66
2022/03/03 06:29:56;;;;;;;28.98;19.23;;;-3.20;99.90;;;-146.41;100.00;57768.22;4978157;28;20050;-67
2022/03/03 06:32:24;;;;;;;25.88;17.00;;;-3.20;99.90;;;-146.41;100.00;57768.22;4978639;28;20062;-67
2022/03/03 06:34:51;;;;;;;28.35;19.23;;;-3.20;99.90;;;-146.41;100.00;57768.22;4975159;28;20558;-67
2022/03/03 06:37:18;;;;;;;28.92;19.23;;;-3.20;99.90;;;-146.41;100.00;57768.22;4980251;28;20193;-67
2022/03/03 06:39:45;;;;;;;32.40;22.08;;;-3.20;99.90;;;-146.41;100.00;57768.22;4977156;28;20153;-67
2022/03/03 06:42:12;;;;;;;34.75;20.98;;;-3.10;99.90;;;-146.41;100.00;57768.22;4973303;28;20603;-68
2022/03/03 06:44:39;;;;;;;31.23;20.23;;;-3.10;99.90;;;-146.41;100.00;57768.22;4933654;28;1265375;-68
2022/03/03 06:47:06;;;;;;;40.90;26.20;;;-3.10;99.90;;;-146.41;100.00;57768.22;4978476;28;20066;-67
2022/03/03 06:49:34;;;;;;;49.25;28.55;;;-3.00;99.90;;;-146.41;100.00;57768.22;4976219;28;20100;-67
2022/03/03 06:52:03;;;;;;;50.65;33.63;;;-3.00;99.90;;;-146.41;100.00;57768.22;4965464;28;20053;-67
2022/03/03 06:54:33;;;;;;;60.58;37.00;;;-3.00;99.90;;;-146.41;100.00;57768.22;4979248;28;20060;-68
2022/03/03 06:57:00;;;;;;;66.38;39.08;;;-3.00;99.90;;;-146.41;100.00;57768.22;4976298;28;20122;-67
2022/03/03 06:59:34;;;;;;;53.67;33.40;;;-3.00;99.90;;;-146.41;100.00;57768.22;4979584;28;20146;-66
2022/03/03 07:02:01;;;;;;;48.72;31.13;;;-3.00;99.90;;;-146.41;100.00;57768.22;4965159;28;20133;-67
2022/03/03 07:04:29;;;;;;;52.15;31.25;;;-2.90;99.90;;;-146.41;100.00;57768.22;4979867;28;20120;-67
2022/03/03 07:06:57;;;;;;;53.28;31.63;;;-2.80;99.90;;;-146.41;100.00;57768.22;4980688;28;20053;-67
2022/03/03 07:09:25;;;;;;;52.22;30.60;;;-2.70;99.90;;;-146.41;100.00;57768.22;4978902;28;20046;-67
2022/03/03 07:11:52;;;;;;;48.40;29.00;;;-2.50;99.90;;;-146.41;100.00;57768.22;4978679;28;20142;-67
2022/03/03 07:14:19;;;;;;;47.17;30.48;;;-2.50;99.90;;;-146.41;100.00;57768.22;4981621;28;20134;-67
2022/03/03 07:17:02;;;;;;;51.10;33.15;;;-2.40;99.90;;;-146.41;100.00;57768.22;4981389;28;20137;-66
2022/03/03 07:19:38;;;;;;;50.50;31.98;;;-2.50;99.90;;;-146.41;100.00;57768.22;4976965;28;20226;-67
2022/03/03 07:22:17;;;;;;;44.22;29.05;;;-2.50;99.90;;;-146.41;100.00;57768.22;4981422;28;20137;-67
2022/03/03 07:24:58;;;;;;;56.65;32.15;;;-2.50;99.90;;;-146.41;100.00;57768.22;4974327;28;20587;-67
2022/03/03 07:27:26;;;;;;;50.45;32.65;;;-2.60;99.90;;;-146.41;100.00;57768.22;4979100;28;20043;-67
2022/03/03 07:30:06;;;;;;;50.35;31.63;;;-2.60;99.90;;;-146.41;100.00;57768.22;4982857;28;20042;-67
2022/03/03 07:32:37;;;;;;;46.08;28.42;;;-2.50;99.90;;;-146.41;100.00;57768.22;4979695;28;20669;-68
2022/03/03 07:35:12;;;;;;;40.35;25.58;;;-2.40;99.90;;;-146.41;100.00;57768.22;4963974;28;20070;-67
2022/03/03 07:37:53;;;;;;;37.30;24.02;;;-2.10;99.90;;;-146.41;100.00;57768.22;4977585;28;20050;-67
2022/03/03 07:40:20;;;;;;;36.33;23.95;;;-1.70;99.90;;;-146.41;100.00;57768.22;4978576;28;20068;-67
2022/03/03 07:42:57;;;;;;;32.38;22.02;;;-1.50;99.90;;;-146.41;100.00;57768.22;4977891;28;20499;-67
2022/03/03 07:45:26;;;;;;;35.58;21.67;;;-1.30;99.90;;;-146.41;100.00;57768.22;4981398;28;20047;-67
2022/03/03 07:47:57;;;;;;;30.95;21.17;;;-1.10;99.90;;;-146.41;100.00;57768.22;4977812;28;20125;-67
2022/03/03 07:50:26;;;;;;;33.33;20.83;;;-0.80;99.90;;;-146.41;100.00;57768.22;4976542;28;20530;-67
2022/03/03 07:52:54;;;;;;;32.22;20.17;;;-0.20;99.90;;;-146.41;100.00;57768.22;4965476;28;20071;-68
2022/03/03 07:55:23;;;;;;;28.33;19.30;;;0.40;99.90;;;-146.41;100.00;57768.22;4979369;28;20168;-68
2022/03/03 07:57:59;;;;;;;25.27;17.20;;;1.00;99.90;;;-146.41;100.00;57768.22;4960556;28;20058;-67
2022/03/03 08:00:34;;;;;;;24.80;16.27;;;1.60;99.90;;;-146.41;100.00;57768.22;4980944;28;20101;-67
2022/03/03 08:03:08;;;;;;;23.02;15.35;;;2.20;99.90;;;-146.41;100.00;57768.22;4965612;28;20075;-68
2022/03/03 08:05:37;;;;;;;24.08;15.18;;;2.80;99.90;;;-146.41;100.00;57768.22;4963371;28;20091;-66
2022/03/03 08:08:08;;;;;;;20.83;13.80;;;3.30;99.90;;;-146.41;100.00;57768.22;4980636;28;20121;-67
2022/03/03 08:10:35;;;;;;;25.05;16.42;;;3.80;99.90;;;-146.41;100.00;57768.22;4966202;28;20148;-66
2022/03/03 08:13:02;;;;;;;22.13;15.07;;;4.10;99.90;;;-146.41;100.00;57768.22;4974571;28;20050;-66
2022/03/03 08:15:30;;;;;;;20.85;15.30;;;4.50;99.90;;;-146.41;100.00;57768.22;4966184;28;20066;-66
2022/03/03 08:17:57;;;;;;;22.90;14.98;;;4.60;99.90;;;-146.41;100.00;57768.22;4979621;28;20078;-66
2022/03/03 08:20:24;;;;;;;26.63;15.15;;;4.60;99.90;;;-146.41;100.00;57768.22;4979803;28;20150;-67
2022/03/03 08:22:51;;;;;;;20.08;14.75;;;4.80;99.90;;;-146.41;100.00;57768.22;4977210;28;20042;-66
2022/03/03 08:25:18;;;;;;;24.13;14.90;;;4.90;99.90;;;-146.41;100.00;57768.22;4975494;28;20145;-65
2022/03/03 08:27:45;;;;;;;22.35;15.15;;;5.10;99.90;;;-146.41;100.00;57768.22;4978781;28;20114;-66
2022/03/03 08:30:13;;;;;;;19.98;14.35;;;5.10;99.90;;;-146.41;100.00;57768.22;4982353;28;20082;-66
2022/03/03 08:32:49;;;;;;;22.35;15.75;;;5.10;99.90;;;-146.41;100.00;57768.22;4978830;28;20395;-66
2022/03/03 08:35:19;;;;;;;19.90;14.63;;;5.10;99.90;;;-146.41;100.00;57768.22;4965011;28;20082;-66
2022/03/03 08:38:34;;;;;;;23.10;15.60;;;5.30;99.90;;;-146.41;100.00;57768.22;4974947;28;20046;-67
2022/03/03 08:41:04;;;;;;;23.08;15.57;;;5.40;99.90;;;-146.41;100.00;57768.22;4950399;28;20137;-67
2022/03/03 08:43:33;;;;;;;25.73;15.98;;;5.40;99.90;;;-146.41;100.00;57768.22;4976679;28;20125;-66
2022/03/03 08:46:05;;;;;;;20.75;15.18;;;5.40;99.90;;;-146.41;100.00;57768.22;4978737;28;20042;-66
2022/03/03 08:48:33;;;;;;;20.75;14.13;;;5.80;99.90;;;-146.41;100.00;57768.22;4982446;28;20050;-71
2022/03/03 08:51:02;;;;;;;21.95;15.02;;;6.10;99.90;;;-146.41;100.00;57768.22;4980840;28;20506;-67
2022/03/03 08:53:30;;;;;;;22.80;14.50;;;6.60;99.10;;;-146.41;100.00;57768.22;4981231;28;20117;-67
2022/03/03 08:55:58;;;;;;;18.38;13.88;;;7.10;99.20;;;-146.41;100.00;57768.22;4979579;28;20078;-66
2022/03/03 08:58:26;;;;;;;18.63;12.95;;;7.50;98.30;;;-146.41;100.00;57768.22;4976521;28;20047;-67
2022/03/03 09:00:53;;;;;;;18.42;13.35;;;7.90;97.60;;;-146.41;100.00;57768.22;4977474;28;20121;-66
2022/03/03 09:03:22;;;;;;;22.92;13.98;;;8.30;96.70;;;-146.41;100.00;57768.22;4964502;28;20046;-67
2022/03/03 09:05:50;;;;;;;22.00;14.82;;;8.50;94.90;;;-146.41;100.00;57768.22;4980497;28;20527;-66
2022/03/03 09:08:17;;;;;;;21.88;15.70;;;7.90;93.40;;;-146.41;100.00;57768.22;4982087;28;20101;-66
2022/03/03 09:10:44;;;;;;;22.48;15.52;;;7.90;93.70;;;-146.41;100.00;57768.22;4980408;28;20133;-67
2022/03/03 09:13:11;;;;;;;25.38;16.00;;;7.90;93.70;;;-146.41;100.00;57768.22;4985899;28;20097;-66
2022/03/03 09:15:38;;;;;;;21.85;15.00;;;7.70;94.70;;;-146.41;100.00;57768.22;4969167;28;20515;-67
2022/03/03 09:18:06;;;;;;;21.42;15.43;;;7.50;94.50;;;-146.41;100.00;57768.22;4979293;28;20054;-66
2022/03/03 09:20:34;;;;;;;23.05;15.82;;;6.90;94.50;;;-146.41;100.00;57768.22;4981641;28;20051;-66
2022/03/03 09:23:02;;;;;;;21.75;15.45;;;6.40;96.60;;;-146.41;100.00;57768.22;4979757;28;20078;-66
2022/03/03 09:25:30;;;;;;;22.58;15.90;;;6.20;97.50;;;-146.41;100.00;57768.22;4981903;28;20066;-66
2022/03/03 09:27:57;;;;;;;33.70;17.13;;;5.80;97.20;;;-146.41;100.00;57768.22;4979165;28;20452;-66
2022/03/03 09:30:24;;;;;;;23.00;16.35;;;5.40;98.10;;;-146.41;100.00;57768.22;4978785;28;20565;-66
2022/03/03 09:32:51;;;;;;;26.83;15.75;;;5.40;98.50;;;-146.41;100.00;57768.22;4980822;28;20081;-66
2022/03/03 09:35:18;;;;;;;26.10;15.90;;;5.10;98.50;;;-146.41;100.00;57768.22;4983471;28;20163;-66
2022/03/03 09:37:46;;;;;;;25.45;15.75;;;5.10;99.80;;;-146.41;100.00;57768.22;4979745;28;20050;-66
2022/03/03 09:40:13;;;;;;;27.65;17.20;;;5.10;99.60;;;-146.41;100.00;57768.22;4979270;28;20133;-66
2022/03/03 09:42:40;;;;;;;27.48;17.02;;;5.10;99.90;;;-146.41;100.00;57768.22;4981387;28;20145;-66
2022/03/03 09:45:10;;;;;;;29.25;16.17;;;5.10;99.90;;;-146.41;100.00;57768.22;4977632;28;20408;-65
2022/03/03 09:47:38;;;;;;;24.75;16.23;;;5.20;99.90;;;-146.41;100.00;57768.22;4970774;28;20121;-66
2022/03/03 09:50:07;;;;;;;25.90;15.50;;;5.30;99.90;;;-146.41;100.00;57768.22;4975829;28;20101;-66
2022/03/03 09:52:35;;;;;;;23.45;15.73;;;5.40;99.90;;;-146.41;100.00;57768.22;4980428;28;20161;-66
2022/03/03 09:55:05;;;;;;;33.67;17.75;;;5.30;99.90;;;-146.41;100.00;57768.22;4980764;28;20054;-65
2022/03/03 09:57:33;;;;;;;26.45;16.35;;;5.30;99.90;;;-146.41;100.00;57768.22;4979905;28;20073;-66
2022/03/03 10:00:03;;;;;;;26.63;16.48;;;5.20;99.90;;;-146.41;100.00;57768.22;4980118;28;20129;-66